Time;durP1;ratioP1;P1;durP2;ratioP2;P2;SDS_P1;SDS_P2;PMS_P1;PMS_P2;Temp;Humidity;BMP_temperature;BMP_pressure;BME280_temperature;BME280_humidity;BME280_pressure;Samples;Min_cycle;Max_cycle;Signal;HPM_P1;HPM_P2
2020/12/30 00:00:52;;;;;;;13.13;10.50;;;;;;;2.74;90.70;98370.84;5065531;28;20045;-69
2020/12/30 00:03:18;;;;;;;14.65;10.48;;;;;;;2.71;90.83;98369.22;5067162;28;20060;-69
2020/12/30 00:05:44;;;;;;;18.80;10.82;;;;;;;2.81;90.61;98368.69;5066338;28;20051;-67
2020/12/30 00:08:10;;;;;;;15.77;11.40;;;;;;;2.80;90.41;98375.75;5065153;28;20056;-70
2020/12/30 00:10:37;;;;;;;17.48;11.23;;;;;;;2.78;90.70;98374.97;5048546;28;20045;-71
2020/12/30 00:13:04;;;;;;;20.55;11.18;;;;;;;2.74;90.70;98370.84;5066771;28;20098;-68
2020/12/30 00:15:30;;;;;;;19.00;11.23;;;;;;;2.76;90.68;98370.72;5068270;28;20047;-69
2020/12/30 00:17:56;;;;;;;18.52;11.63;;;;;;;2.74;90.60;98367.34;5038089;28;20115;-69
2020/12/30 00:20:22;;;;;;;14.88;10.73;;;;;;;2.78;90.72;98369.72;5055981;28;20053;-69
2020/12/30 00:22:48;;;;;;;20.85;11.75;;;;;;;2.75;90.28;98358.50;5056666;28;20057;-69
2020/12/30 00:25:16;;;;;;;17.15;10.93;;;;;;;2.72;90.48;98359.53;5055091;28;20041;-72
2020/12/30 00:27:44;;;;;;;17.48;11.38;;;;;;;2.78;90.58;98366.25;5038624;28;20053;-72
2020/12/30 00:30:15;;;;;;;18.52;11.80;;;;;;;2.78;90.46;98364.44;5056503;28;20094;-68
2020/12/30 00:32:43;;;;;;;16.33;11.43;;;;;;;2.77;90.50;98369.81;5056288;28;20071;-68
2020/12/30 00:35:11;;;;;;;17.45;11.95;;;;;;;2.82;90.25;98375.66;5056394;28;20049;-68
2020/12/30 00:37:37;;;;;;;15.10;11.70;;;;;;;2.79;90.45;98360.88;5056013;28;20346;-70
2020/12/30 00:40:05;;;;;;;21.08;12.52;;;;;;;2.77;90.72;98372.47;5055955;28;20098;-68
2020/12/30 00:42:32;;;;;;;18.00;12.27;;;;;;;2.78;90.41;98368.88;5055900;28;20367;-69
2020/12/30 00:45:00;;;;;;;17.70;12.13;;;;;;;2.76;90.62;98366.31;5055847;28;20049;-70
2020/12/30 00:47:27;;;;;;;19.65;12.20;;;;;;;2.76;90.60;98363.69;5056225;28;20049;-66
2020/12/30 00:49:53;;;;;;;17.40;12.02;;;;;;;2.76;90.76;98370.72;5055729;28;20060;-71
2020/12/30 00:52:19;;;;;;;17.50;12.07;;;;;;;2.79;90.75;98370.56;5055873;28;20137;-69
2020/12/30 00:54:45;;;;;;;19.35;12.40;;;;;;;2.79;90.72;98363.50;5055000;28;20048;-70
2020/12/30 00:57:12;;;;;;;21.15;13.48;;;;;;;2.81;90.43;98373.97;5075588;28;20346;-70
2020/12/30 00:59:40;;;;;;;17.70;13.20;;;;;;;2.84;90.03;98374.63;5075732;28;20052;-70
2020/12/30 01:02:06;;;;;;;19.85;13.07;;;;;;;2.84;90.34;98373.78;5075816;28;20049;-69
2020/12/30 01:04:33;;;;;;;17.15;11.60;;;;;;;2.81;90.31;98376.59;5057924;28;20040;-71
2020/12/30 01:06:59;;;;;;;16.45;12.77;;;;;;;2.76;90.55;98392.66;5058142;28;20128;-69
2020/12/30 01:09:26;;;;;;;19.88;13.00;;;;;;;2.79;90.45;98391.66;5075615;28;20064;-70
2020/12/30 01:11:54;;;;;;;18.38;13.45;;;;;;;2.80;90.42;98394.22;5075895;28;20094;-71
2020/12/30 01:14:20;;;;;;;17.33;12.02;;;;;;;2.78;90.61;98389.97;5075729;28;20053;-68
2020/12/30 01:16:53;;;;;;;17.52;13.07;;;;;;;2.78;90.39;98392.59;5075145;28;20389;-69
2020/12/30 01:19:19;;;;;;;19.08;12.90;;;;;;;2.89;89.58;98391.97;5075786;28;20056;-70
2020/12/30 01:21:46;;;;;;;21.13;12.77;;;;;;;2.84;89.95;98400.16;5075443;28;20044;-70
2020/12/30 01:24:12;;;;;;;17.55;12.75;;;;;;;2.77;89.93;98394.38;5067918;28;20053;-68
2020/12/30 01:26:40;;;;;;;18.45;12.73;;;;;;;2.85;89.95;98405.31;5037634;28;20060;-69
2020/12/30 01:29:07;;;;;;;18.23;11.65;;;;;;;2.79;90.06;98402.19;5055328;28;20049;-68
2020/12/30 01:31:35;;;;;;;16.48;12.32;;;;;;;2.82;89.98;98410.75;5055325;28;20354;-67
2020/12/30 01:34:01;;;;;;;17.52;12.77;;;;;;;2.79;90.07;98413.56;5055374;28;20054;-70
2020/12/30 01:36:28;;;;;;;19.52;12.32;;;;;;;2.79;90.35;98418.00;5054739;28;20390;-69
2020/12/30 01:38:54;;;;;;;23.58;12.88;;;;;;;2.74;90.36;98420.03;5054185;28;20083;-68
2020/12/30 01:41:21;;;;;;;20.05;12.73;;;;;;;2.76;90.33;98426.91;5037426;28;20390;-68
2020/12/30 01:44:08;;;;;;;16.92;12.98;;;;;;;2.76;90.24;98421.66;5037342;28;20052;-69
2020/12/30 01:46:39;;;;;;;17.92;11.75;;;;;;;2.78;90.53;98422.41;5054914;28;20053;-69
2020/12/30 01:49:08;;;;;;;16.50;11.75;;;;;;;2.71;90.23;98423.69;5055064;28;20496;-70
2020/12/30 01:51:37;;;;;;;16.33;12.27;;;;;;;2.70;90.00;98425.50;5054132;28;20059;-71
2020/12/30 01:54:03;;;;;;;18.95;12.20;;;;;;;2.71;90.28;98436.88;5055197;28;20059;-72
2020/12/30 01:56:32;;;;;;;17.00;12.25;;;;;;;2.71;90.13;98442.13;5054068;28;20111;-71
2020/12/30 01:59:00;;;;;;;19.90;12.40;;;;;;;2.64;90.29;98441.66;5037301;28;20060;-69
2020/12/30 02:01:29;;;;;;;18.45;12.65;;;;;;;2.63;90.15;98450.50;5054880;28;20053;-68
2020/12/30 02:03:57;;;;;;;17.55;12.25;;;;;;;2.60;90.28;98444.53;5054768;28;20048;-69
2020/12/30 02:06:25;;;;;;;17.45;12.98;;;;;;;2.57;90.35;98448.19;5055230;28;20057;-69
2020/12/30 02:08:52;;;;;;;19.42;13.27;;;;;;;2.50;90.22;98450.31;5055156;28;20049;-72
2020/12/30 02:11:23;;;;;;;17.92;12.75;;;;;;;2.51;90.31;98456.44;5037526;28;20064;-71
2020/12/30 02:13:59;;;;;;;18.65;12.50;;;;;;;2.39;90.39;98447.44;5054675;28;20056;-71
2020/12/30 02:16:25;;;;;;;15.82;12.57;;;;;;;2.31;90.52;98446.03;5037524;28;20049;-69
2020/12/30 02:18:55;;;;;;;18.00;13.02;;;;;;;2.24;90.84;98439.41;5054961;28;20049;-71
2020/12/30 02:21:21;;;;;;;18.73;12.98;;;;;;;2.20;91.13;98451.06;5054760;28;20500;-70
2020/12/30 02:23:50;;;;;;;17.48;12.05;;;;;;;2.11;90.65;98448.91;5054771;28;20090;-71
2020/12/30 02:26:16;;;;;;;16.45;12.25;;;;;;;2.06;91.02;98462.31;5054653;28;20431;-71
2020/12/30 02:28:43;;;;;;;20.08;12.77;;;;;;;1.99;90.98;98468.84;5054705;28;20060;-67
2020/12/30 02:31:09;;;;;;;17.48;12.85;;;;;;;1.83;91.41;98450.38;5055139;28;20134;-69
2020/12/30 02:33:35;;;;;;;18.70;13.30;;;;;;;1.80;91.57;98463.72;5054851;28;20045;-68
2020/12/30 02:36:01;;;;;;;19.13;13.45;;;;;;;1.78;91.75;98470.84;5054887;28;20049;-68
2020/12/30 02:38:27;;;;;;;21.40;13.80;;;;;;;1.74;91.58;98468.34;5054714;28;20099;-70
2020/12/30 02:40:53;;;;;;;21.33;12.30;;;;;;;1.67;91.50;98474.00;5053337;28;20320;-70
2020/12/30 02:43:19;;;;;;;18.25;12.93;;;;;;;1.66;91.97;98469.66;5054713;28;20100;-71
2020/12/30 02:45:45;;;;;;;20.25;14.13;;;;;;;1.61;92.12;98477.81;5054686;28;20053;-69
2020/12/30 02:48:11;;;;;;;22.05;14.02;;;;;;;1.61;92.25;98475.19;5055620;28;20098;-72
2020/12/30 02:50:38;;;;;;;25.55;15.07;;;;;;;1.63;92.36;98476.81;5058491;28;20452;-71
2020/12/30 02:53:04;;;;;;;18.45;13.00;;;;;;;1.57;92.03;98481.53;5058355;28;20118;-70
2020/12/30 02:55:30;;;;;;;20.40;13.77;;;;;;;1.52;91.88;98476.50;5040651;28;20422;-69
2020/12/30 02:57:56;;;;;;;21.05;14.45;;;;;;;1.44;91.83;98482.16;5058405;28;20055;-67
2020/12/30 03:00:22;;;;;;;20.75;14.25;;;;;;;1.52;91.80;98473.88;5058351;28;20064;-68
2020/12/30 03:02:48;;;;;;;17.85;13.38;;;;;;;1.47;92.18;98478.53;5058337;28;20110;-69
2020/12/30 03:05:14;;;;;;;18.70;13.30;;;;;;;1.44;92.05;98471.66;5058144;28;20091;-70
2020/12/30 03:07:41;;;;;;;18.27;13.07;;;;;;;1.43;91.84;98484.84;5058408;28;20056;-68
2020/12/30 03:10:07;;;;;;;18.17;13.13;;;;;;;1.39;91.68;98484.16;5058411;28;20060;-69
2020/12/30 03:12:33;;;;;;;23.38;13.85;;;;;;;1.37;91.59;98491.28;5058471;28;20049;-68
2020/12/30 03:14:59;;;;;;;22.35;14.27;;;;;;;1.38;92.68;98482.47;5058256;28;20045;-72
2020/12/30 03:17:25;;;;;;;19.85;14.20;;;;;;;1.40;92.03;98485.84;5058841;28;20118;-69
2020/12/30 03:19:55;;;;;;;19.45;14.35;;;;;;;1.44;92.42;98490.03;5058131;28;20084;-70
2020/12/30 03:22:21;;;;;;;23.27;14.95;;;;;;;1.44;92.74;98484.78;5058392;28;20048;-70
2020/12/30 03:24:47;;;;;;;22.23;14.70;;;;;;;1.47;92.74;98489.88;5057863;28;20434;-70
2020/12/30 03:27:13;;;;;;;23.08;14.95;;;;;;;1.58;92.55;98496.38;5058176;28;20060;-70
2020/12/30 03:29:39;;;;;;;24.98;14.35;;;;;;;1.54;92.50;98490.44;5058273;28;20048;-69
2020/12/30 03:32:06;;;;;;;24.10;15.02;;;;;;;1.53;92.31;98485.25;5058095;28;20053;-69
2020/12/30 03:34:32;;;;;;;25.92;14.85;;;;;;;1.62;92.64;98501.41;5040024;28;20053;-71
2020/12/30 03:36:58;;;;;;;20.63;14.65;;;;;;;1.55;92.33;98499.16;5057805;28;20079;-70
2020/12/30 03:39:24;;;;;;;22.05;14.73;;;;;;;1.63;92.28;98502.25;5040064;28;20053;-69
2020/12/30 03:41:50;;;;;;;22.38;15.48;;;;;;;1.63;92.26;98502.25;5057835;28;20053;-68
2020/12/30 03:44:16;;;;;;;24.48;13.98;;;;;;;1.58;92.25;98509.53;5058008;28;20052;-68
2020/12/30 03:46:42;;;;;;;24.33;15.65;;;;;;;1.56;92.34;98495.59;5057600;28;20057;-71
2020/12/30 03:49:09;;;;;;;26.52;15.70;;;;;;;1.60;92.25;98505.03;5039854;28;20061;-69
2020/12/30 03:51:35;;;;;;;22.40;15.00;;;;;;;1.61;92.19;98506.72;5057166;28;20045;-68
2020/12/30 03:54:01;;;;;;;21.48;14.60;;;;;;;1.61;92.19;98504.09;5057224;28;20396;-68
2020/12/30 03:56:27;;;;;;;24.15;15.13;;;;;;;1.60;92.29;98507.66;5056173;28;20056;-70
2020/12/30 03:58:53;;;;;;;25.17;15.82;;;;;;;1.59;92.44;98511.22;5057161;28;20052;-70
2020/12/30 04:01:24;;;;;;;;;;;;;;;1.57;92.59;98510.47;5057802;28;20060;-70
2020/12/30 04:03:50;;;;;;;24.13;14.88;;;;;;;1.46;93.03;98509.22;5056889;28;19967;-67
2020/12/30 04:06:17;;;;;;;25.77;16.02;;;;;;;1.54;92.60;98527.25;5056223;28;20045;-69
2020/12/30 04:08:43;;;;;;;23.75;16.08;;;;;;;1.60;92.86;98520.81;5056823;28;20332;-70
2020/12/30 04:11:09;;;;;;;26.52;15.32;;;;;;;1.62;92.36;98522.44;5039317;28;20496;-70
2020/12/30 04:13:35;;;;;;;26.13;16.42;;;;;;;1.65;92.82;98521.44;5055941;28;20052;-67
2020/12/30 04:16:01;;;;;;;25.63;15.60;;;;;;;1.83;92.28;98534.56;5039305;28;20102;-69
2020/12/30 04:18:27;;;;;;;28.92;16.02;;;;;;;1.90;91.90;98535.94;5056700;28;20080;-68
2020/12/30 04:20:54;;;;;;;30.27;16.17;;;;;;;1.94;92.01;98526.97;5056780;28;20075;-70
2020/12/30 04:23:20;;;;;;;29.15;16.98;;;;;;;1.96;92.02;98534.81;5056866;28;20064;-70
2020/12/30 04:25:48;;;;;;;31.20;17.83;;;;;;;1.94;91.90;98534.88;5055397;28;20053;-69
2020/12/30 04:28:16;;;;;;;30.25;17.05;;;;;;;1.93;91.96;98534.94;5056823;28;20048;-70
2020/12/30 04:30:43;;;;;;;30.05;17.38;;;;;;;1.88;92.40;98529.94;5056455;28;20055;-71
2020/12/30 04:33:10;;;;;;;27.08;16.52;;;;;;;1.82;92.22;98524.97;5056349;28;20068;-69
2020/12/30 04:35:36;;;;;;;25.25;16.55;;;;;;;1.81;92.53;98525.91;5056738;28;20071;-71
2020/12/30 04:38:04;;;;;;;27.02;17.50;;;;;;;1.84;92.67;98536.25;5056279;28;20053;-70
2020/12/30 04:40:31;;;;;;;25.65;16.85;;;;;;;1.84;92.67;98539.75;5039154;28;20383;-70
2020/12/30 04:43:00;;;;;;;33.17;18.23;;;;;;;1.82;92.72;98522.34;5056437;28;20129;-70
2020/12/30 04:45:27;;;;;;;25.48;17.55;;;;;;;1.86;92.83;98527.38;5056132;28;20178;-70
2020/12/30 04:47:55;;;;;;;27.92;17.85;;;;;;;1.90;92.60;98531.56;5055974;28;20045;-70
2020/12/30 04:50:23;;;;;;;28.27;18.58;;;;;;;1.93;92.99;98529.69;5056179;28;20044;-69
2020/12/30 04:52:49;;;;;;;28.45;17.13;;;;;;;1.95;92.92;98533.09;5055922;28;20053;-71
2020/12/30 04:55:24;;;;;;;27.67;19.23;;;;;;;2.00;92.99;98534.56;5055897;28;20049;-70
2020/12/30 04:58:07;;;;;;;28.40;18.00;;;;;;;2.05;93.02;98541.38;5055900;28;20354;-68
2020/12/30 05:00:36;;;;;;;27.95;17.58;;;;;;;2.09;92.79;98542.91;5055717;28;20049;-68
2020/12/30 05:03:08;;;;;;;28.98;17.63;;;;;;;2.12;92.85;98545.38;5055973;28;20053;-69
2020/12/30 05:05:37;;;;;;;30.33;18.77;;;;;;;2.17;92.72;98543.34;5055458;28;20051;-71
2020/12/30 05:08:07;;;;;;;27.08;17.25;;;;;;;2.14;92.86;98546.16;5055617;28;20053;-70
2020/12/30 05:10:37;;;;;;;27.60;18.85;;;;;;;2.24;92.55;98546.50;5055316;28;20449;-68
2020/12/30 05:13:03;;;;;;;25.88;17.05;;;;;;;2.27;92.42;98539.31;5037854;28;20397;-70
2020/12/30 05:15:29;;;;;;;25.42;18.20;;;;;;;2.26;92.28;98542.88;5055710;28;20123;-68
2020/12/30 05:17:55;;;;;;;25.70;16.50;;;;;;;2.31;92.34;98551.34;5055261;28;20064;-70
2020/12/30 05:20:25;;;;;;;28.33;16.92;;;;;;;2.31;92.58;98556.63;5055235;28;20052;-70
2020/12/30 05:22:54;;;;;;;30.13;17.58;;;;;;;2.26;92.67;98553.41;5037834;28;20075;-68
2020/12/30 05:25:25;;;;;;;27.13;17.35;;;;;;;2.30;92.59;98562.00;5055079;28;20048;-68
2020/12/30 05:27:53;;;;;;;28.65;17.90;;;;;;;2.26;92.59;98563.94;5055245;28;20057;-68
2020/12/30 05:30:23;;;;;;;27.60;17.50;;;;;;;2.31;92.64;98558.41;5055000;28;20056;-68
2020/12/30 05:32:53;;;;;;;29.48;16.42;;;;;;;2.31;92.86;98567.16;5055292;28;20060;-68
2020/12/30 05:35:20;;;;;;;28.95;17.90;;;;;;;2.26;92.76;98563.06;5054966;28;20052;-69
2020/12/30 05:37:47;;;;;;;30.50;18.38;;;;;;;2.23;92.76;98565.88;5055094;28;20061;-69
2020/12/30 05:40:21;;;;;;;28.65;17.15;;;;;;;2.25;92.99;98564.88;5054921;28;20435;-70
2020/12/30 05:42:47;;;;;;;28.20;18.95;;;;;;;2.25;92.98;98567.50;5055129;28;20049;-68
2020/12/30 05:45:22;;;;;;;32.17;18.80;;;;;;;2.20;93.22;98568.66;5054891;28;20449;-70
2020/12/30 05:47:49;;;;;;;28.67;18.23;;;;;;;2.24;93.00;98570.22;5054954;28;20423;-70
2020/12/30 05:50:23;;;;;;;32.95;18.60;;;;;;;2.20;93.15;98566.03;5054962;28;20053;-69
2020/12/30 05:52:50;;;;;;;30.00;18.58;;;;;;;2.22;93.19;98565.00;5055115;28;20063;-70
2020/12/30 05:55:24;;;;;;;30.13;19.02;;;;;;;2.13;93.51;98576.88;5037378;28;20503;-69
2020/12/30 05:57:50;;;;;;;35.30;20.20;;;;;;;2.12;93.64;98582.22;5055103;28;20052;-70
2020/12/30 06:00:17;;;;;;;32.83;20.63;;;;;;;2.07;93.85;98573.72;5037242;28;20053;-70
2020/12/30 06:02:44;;;;;;;36.70;21.10;;;;;;;2.05;93.99;98572.94;5054807;28;20053;-71
2020/12/30 06:05:16;;;;;;;32.60;19.77;;;;;;;2.03;94.11;98584.38;5037291;28;20057;-68
2020/12/30 06:07:44;;;;;;;33.53;20.73;;;;;;;2.02;94.17;98584.47;5037338;28;20049;-69
2020/12/30 06:10:12;;;;;;;34.67;20.33;;;;;;;1.99;94.18;98582.00;5054936;28;20053;-69
2020/12/30 06:12:44;;;;;;;37.97;21.85;;;;;;;2.01;94.14;98583.63;5037018;28;20096;-71
2020/12/30 06:15:12;;;;;;;;;;;;;;;2.04;94.15;98590.50;5055140;28;20049;-70
2020/12/30 06:17:50;;;;;;;32.05;19.00;;;;;;;2.07;93.68;98584.25;5036716;28;20322;-70
2020/12/30 06:20:23;;;;;;;33.10;18.77;;;;;;;2.05;94.11;98591.38;5054620;28;20045;-70
2020/12/30 06:22:57;;;;;;;34.40;18.48;;;;;;;2.02;93.75;98590.59;5037892;28;20195;-68
2020/12/30 06:25:25;;;;;;;34.08;19.52;;;;;;;2.11;93.88;98604.19;5058790;28;20060;-69
2020/12/30 06:27:53;;;;;;;34.67;18.25;;;;;;;2.06;93.93;98598.34;5058521;28;20057;-68
2020/12/30 06:30:19;;;;;;;32.70;18.33;;;;;;;2.14;93.66;98606.69;5058968;28;20103;-70
2020/12/30 06:32:46;;;;;;;29.00;18.75;;;;;;;2.18;93.60;98621.38;5058498;28;20484;-68
2020/12/30 06:35:12;;;;;;;27.35;18.25;;;;;;;2.26;93.18;98621.84;5058654;28;20115;-68
2020/12/30 06:37:41;;;;;;;30.92;19.67;;;;;;;2.28;93.23;98629.66;5058670;28;20063;-68
2020/12/30 06:40:15;;;;;;;32.22;19.50;;;;;;;2.31;93.36;98629.50;5058423;28;20053;-70
2020/12/30 06:42:42;;;;;;;33.05;18.92;;;;;;;2.36;92.70;98634.53;5058550;28;20052;-71
2020/12/30 06:45:11;;;;;;;30.35;19.35;;;;;;;2.36;93.15;98650.31;5058574;28;20045;-69
2020/12/30 06:47:57;;;;;;;33.35;18.77;;;;;;;2.41;92.69;98635.97;5058447;28;20135;-68
2020/12/30 06:50:24;;;;;;;29.08;18.88;;;;;;;2.34;92.42;98628.50;5058427;28;20148;-68
2020/12/30 06:52:50;;;;;;;31.58;19.95;;;;;;;2.39;92.66;98647.56;5058140;28;20097;-70
2020/12/30 06:55:16;;;;;;;32.67;19.98;;;;;;;2.35;92.84;98651.25;5058463;28;20057;-67
2020/12/30 06:57:45;;;;;;;36.00;20.55;;;;;;;2.32;92.77;98660.16;5058080;28;20051;-69
2020/12/30 07:00:38;;;;;;;32.17;20.10;;;;;;;2.29;92.83;98663.81;5058082;28;20059;-71
2020/12/30 07:03:18;;;;;;;32.40;18.95;;;;;;;2.23;92.77;98664.13;5058196;28;20397;-72
2020/12/30 07:05:46;;;;;;;33.85;21.25;;;;;;;2.24;92.77;98664.97;5058228;28;20048;-68
2020/12/30 07:08:38;;;;;;;37.10;21.08;;;;;;;2.23;93.22;98672.00;5057910;28;20457;-71
2020/12/30 07:11:04;;;;;;;32.03;20.23;;;;;;;2.27;93.14;98677.97;5058123;28;20075;-67
2020/12/30 07:13:40;;;;;;;30.40;17.50;;;;;;;2.16;92.80;98644.28;5040371;28;20053;-68
2020/12/30 07:16:19;;;;;;;35.20;20.45;;;;;;;2.34;92.85;98681.16;5058295;28;20060;-68
2020/12/30 07:18:47;;;;;;;32.65;20.08;;;;;;;2.35;92.60;98678.47;5057634;28;20052;-68
2020/12/30 07:21:16;;;;;;;29.70;20.13;;;;;;;2.33;92.76;98688.19;5058006;28;20107;-70
2020/12/30 07:23:43;;;;;;;31.02;20.27;;;;;;;2.35;93.02;98688.13;5057705;28;20385;-68
2020/12/30 07:26:15;;;;;;;34.10;20.02;;;;;;;2.36;92.91;98692.47;5056871;28;20119;-70
2020/12/30 07:28:43;;;;;;;35.30;19.25;;;;;;;2.38;92.90;98694.09;5057719;28;20052;-68
2020/12/30 07:31:10;;;;;;;32.33;20.88;;;;;;;2.41;92.82;98693.91;5057774;28;20118;-68
2020/12/30 07:33:37;;;;;;;31.50;19.90;;;;;;;2.44;92.59;98696.41;5057221;28;20111;-71
2020/12/30 07:36:05;;;;;;;37.00;20.48;;;;;;;2.44;92.55;98700.81;5039949;28;20049;-67
2020/12/30 07:38:32;;;;;;;30.80;19.65;;;;;;;2.40;92.81;98702.75;5057482;28;20049;-67
2020/12/30 07:41:07;;;;;;;31.33;20.25;;;;;;;2.33;92.59;98700.53;5057616;28;20057;-68
2020/12/30 07:43:47;;;;;;;32.03;19.75;;;;;;;2.35;92.93;98704.78;5057452;28;20060;-71
2020/12/30 07:46:18;;;;;;;33.72;19.35;;;;;;;2.25;92.76;98714.94;5057524;28;20049;-70
2020/12/30 07:48:44;;;;;;;;;;;;;;;2.24;93.04;98707.94;5056878;28;20045;-70
2020/12/30 07:51:11;;;;;;;29.88;17.88;;;;;;;2.24;92.96;98718.47;5057071;28;19925;-69
2020/12/30 07:53:37;;;;;;;35.55;19.27;;;;;;;2.27;92.80;98722.72;5039439;28;20079;-71
2020/12/30 07:56:03;;;;;;;26.98;18.15;;;;;;;2.24;92.92;98729.00;5054360;28;20098;-71
2020/12/30 07:58:29;;;;;;;30.45;18.98;;;;;;;2.25;93.10;98728.09;5076073;28;20404;-74
2020/12/30 08:00:56;;;;;;;35.55;19.38;;;;;;;2.18;93.33;98716.13;5059389;28;20044;-75
2020/12/30 08:03:22;;;;;;;32.97;19.88;;;;;;;2.25;92.99;98738.63;5076926;28;20479;-74
2020/12/30 08:05:52;;;;;;;33.03;19.17;;;;;;;2.30;92.97;98747.13;5059282;28;20332;-73
2020/12/30 08:08:18;;;;;;;33.33;19.13;;;;;;;2.31;92.60;98742.72;5076850;28;20052;-77
2020/12/30 08:10:48;;;;;;;30.50;18.42;;;;;;;2.44;91.81;98746.44;5057717;28;20048;-76
2020/12/30 08:13:15;;;;;;;28.58;17.70;;;;;;;2.51;91.77;98754.88;5056270;28;20040;-76
2020/12/30 08:15:53;;;;;;;29.00;17.27;;;;;;;2.56;91.00;98760.75;5039074;28;20118;-75
2020/12/30 08:18:19;;;;;;;29.33;17.02;;;;;;;2.65;90.91;98770.00;5055945;28;20056;-77
2020/12/30 08:20:46;;;;;;;26.85;16.52;;;;;;;2.79;90.12;98784.25;5056231;28;20052;-79
2020/12/30 08:23:17;;;;;;;30.33;16.52;;;;;;;2.76;89.97;98769.44;5038531;28;20328;-76
2020/12/30 08:25:48;;;;;;;28.55;17.38;;;;;;;2.80;90.04;98780.66;5056483;28;20395;-76
2020/12/30 08:28:16;;;;;;;23.23;15.93;;;;;;;2.87;89.54;98783.84;5056489;28;20124;-76
2020/12/30 08:30:43;;;;;;;27.85;16.08;;;;;;;2.85;89.21;98787.41;5056771;28;20095;-79
2020/12/30 08:33:11;;;;;;;26.33;16.52;;;;;;;2.92;88.71;98792.34;5055620;28;20052;-76
2020/12/30 08:35:45;;;;;;;28.15;15.98;;;;;;;2.81;88.86;98761.28;5060161;28;20119;-75
2020/12/30 08:38:13;;;;;;;23.63;16.15;;;;;;;3.00;88.64;98800.75;5060621;28;20041;-77
2020/12/30 08:40:41;;;;;;;24.13;15.50;;;;;;;2.86;87.91;98785.63;5066956;28;20056;-77
2020/12/30 08:43:10;;;;;;;27.38;13.98;;;;;;;3.04;87.26;98796.16;5049321;28;20072;-79
2020/12/30 08:45:49;;;;;;;25.05;14.30;;;;;;;3.00;87.97;98800.75;5062350;28;20135;-79
2020/12/30 08:48:17;;;;;;;25.23;14.90;;;;;;;3.00;87.64;98800.75;5060345;28;20041;-77
2020/12/30 08:50:45;;;;;;;24.45;15.55;;;;;;;2.89;87.88;98792.53;5065863;28;20350;-77
2020/12/30 08:53:12;;;;;;;25.35;14.90;;;;;;;2.98;88.12;98808.72;5064239;28;20055;-78
2020/12/30 08:55:39;;;;;;;25.27;15.15;;;;;;;3.00;87.81;98811.28;5049353;28;20048;-80
2020/12/30 08:58:05;;;;;;;25.25;13.98;;;;;;;3.02;87.16;98808.56;5065168;28;20056;-79
2020/12/30 09:00:40;;;;;;;24.08;14.85;;;;;;;2.99;87.55;98804.28;5058543;28;20048;-77
2020/12/30 09:03:14;;;;;;;24.35;14.88;;;;;;;3.02;87.96;98812.06;5047734;28;20430;-77
2020/12/30 09:05:41;;;;;;;26.65;14.43;;;;;;;3.05;87.11;98809.25;5054668;28;20099;-78
2020/12/30 09:08:15;;;;;;;23.70;14.80;;;;;;;3.01;87.14;98804.22;5038309;28;20442;-77
2020/12/30 09:10:43;;;;;;;23.85;14.57;;;;;;;3.09;86.79;98809.94;5055518;28;20048;-76
2020/12/30 09:13:18;;;;;;;28.35;14.90;;;;;;;3.11;86.43;98816.84;5048878;28;20052;-74
2020/12/30 09:15:46;;;;;;;26.27;14.88;;;;;;;3.16;86.83;98810.47;5055451;28;20045;-75
2020/12/30 09:18:13;;;;;;;26.83;14.77;;;;;;;3.10;86.79;98820.41;5038098;28;20056;-75
2020/12/30 09:20:40;;;;;;;23.05;14.48;;;;;;;3.12;86.21;98818.53;5055409;28;20122;-75
2020/12/30 09:23:08;;;;;;;23.70;14.15;;;;;;;3.15;86.16;98816.69;5055054;28;20057;-74
2020/12/30 09:25:36;;;;;;;20.58;13.85;;;;;;;3.15;86.04;98820.16;5057488;28;20056;-75
2020/12/30 09:28:14;;;;;;;23.90;14.23;;;;;;;3.21;85.27;98813.75;5040734;28;20055;-75
2020/12/30 09:30:40;;;;;;;22.02;14.90;;;;;;;3.23;86.08;98828.53;5062586;28;20388;-77
2020/12/30 09:33:12;;;;;;;23.00;13.23;;;;;;;3.31;85.26;98822.03;5059907;28;20434;-76
2020/12/30 09:35:39;;;;;;;26.90;15.05;;;;;;;3.31;85.19;98841.31;5062415;28;20045;-78
2020/12/30 09:38:05;;;;;;;20.65;14.05;;;;;;;3.15;85.85;98824.59;5057500;28;20052;-76
2020/12/30 09:40:40;;;;;;;21.70;13.38;;;;;;;3.31;85.65;98836.03;5074289;28;20049;-76
2020/12/30 09:43:12;;;;;;;21.33;14.10;;;;;;;3.31;85.85;98840.47;5074637;28;20078;-77
2020/12/30 09:45:38;;;;;;;22.08;14.73;;;;;;;3.35;85.94;98842.00;5074475;28;20040;-78
2020/12/30 09:48:21;;;;;;;22.70;14.18;;;;;;;3.30;86.20;98842.25;5056537;28;20109;-77
2020/12/30 09:50:49;;;;;;;21.30;13.30;;;;;;;3.27;85.89;98829.22;5074341;28;20499;-77
2020/12/30 09:53:15;;;;;;;24.27;13.18;;;;;;;3.36;85.97;98857.75;5074920;28;20055;-76
2020/12/30 09:55:43;;;;;;;20.90;13.98;;;;;;;3.29;85.62;98860.78;5075317;28;20117;-77
2020/12/30 09:58:09;;;;;;;21.67;13.65;;;;;;;3.22;85.88;98849.72;5054291;28;20057;-76
2020/12/30 10:00:36;;;;;;;25.27;13.88;;;;;;;3.34;85.62;98862.28;5054368;28;20052;-77
2020/12/30 10:03:02;;;;;;;22.90;14.32;;;;;;;3.43;85.14;98865.34;5037499;28;20052;-78
2020/12/30 10:05:29;;;;;;;24.08;14.73;;;;;;;3.39;84.53;98856.75;5053789;28;20053;-77
2020/12/30 10:07:55;;;;;;;24.38;13.85;;;;;;;3.52;84.77;98870.13;5054720;28;20404;-76
2020/12/30 10:10:22;;;;;;;22.73;14.88;;;;;;;3.48;84.80;98860.69;5036278;28;20075;-77
2020/12/30 10:12:48;;;;;;;24.60;14.70;;;;;;;3.58;84.64;98880.38;5053647;28;20056;-75
2020/12/30 10:15:17;;;;;;;23.63;15.05;;;;;;;3.57;84.29;98872.53;5054768;28;20048;-76
2020/12/30 10:17:44;;;;;;;25.45;15.40;;;;;;;3.51;84.32;98886.91;5054225;28;20784;-76
2020/12/30 10:20:11;;;;;;;25.50;14.88;;;;;;;3.50;84.51;98899.22;5054864;28;20072;-74
2020/12/30 10:22:38;;;;;;;26.17;15.65;;;;;;;3.52;85.24;98885.97;5054635;28;20053;-76
2020/12/30 10:25:06;;;;;;;30.00;15.55;;;;;;;2.92;84.73;98781.81;5036409;28;20049;-76
2020/12/30 10:27:32;;;;;;;25.25;14.40;;;;;;;3.45;84.66;98880.16;5051504;28;20045;-76
2020/12/30 10:30:06;;;;;;;27.52;16.42;;;;;;;3.49;84.97;98886.13;5054020;28;20422;-77
2020/12/30 10:32:32;;;;;;;28.40;15.90;;;;;;;3.44;85.45;98888.16;5054514;28;20049;-76
2020/12/30 10:34:59;;;;;;;24.83;14.57;;;;;;;3.48;85.47;98898.47;5054409;28;20103;-77
2020/12/30 10:37:25;;;;;;;26.70;16.13;;;;;;;3.48;86.14;98895.81;5054282;28;20045;-77
2020/12/30 10:39:51;;;;;;;22.67;15.32;;;;;;;3.39;85.36;98878.69;5054469;28;20053;-77
2020/12/30 10:42:18;;;;;;;28.13;15.90;;;;;;;3.54;85.58;98892.00;5053008;28;20498;-77
2020/12/30 10:44:44;;;;;;;29.55;17.05;;;;;;;3.56;85.80;98892.78;5053857;28;20045;-76
2020/12/30 10:47:11;;;;;;;25.02;15.52;;;;;;;3.59;85.74;98904.97;5053482;28;20644;-77
2020/12/30 10:49:38;;;;;;;29.55;17.50;;;;;;;3.55;85.08;98898.16;5053791;28;20353;-78
2020/12/30 10:52:04;;;;;;;26.30;17.83;;;;;;;3.56;85.66;98903.34;5036624;28;20068;-77
2020/12/30 10:54:30;;;;;;;31.55;17.10;;;;;;;3.48;85.38;98889.72;5059875;28;20048;-77
2020/12/30 10:56:56;;;;;;;31.20;17.35;;;;;;;3.62;85.07;98900.41;5062383;28;20049;-76
2020/12/30 10:59:23;;;;;;;30.45;17.70;;;;;;;3.54;85.63;98889.38;5054133;28;20049;-76
2020/12/30 11:01:54;;;;;;;28.85;17.52;;;;;;;3.61;85.57;98889.91;5055049;28;20057;-76
2020/12/30 11:04:21;;;;;;;26.58;16.55;;;;;;;3.65;85.62;98897.56;5069401;28;20361;-77
2020/12/30 11:06:47;;;;;;;27.92;17.25;;;;;;;3.49;85.73;98891.41;5074504;28;20048;-76
2020/12/30 11:09:14;;;;;;;31.58;17.42;;;;;;;3.57;86.15;98901.53;5075028;28;20052;-75
2020/12/30 11:11:40;;;;;;;36.45;18.70;;;;;;;3.67;85.32;98898.34;5077628;28;20056;-76
2020/12/30 11:14:07;;;;;;;27.85;17.85;;;;;;;3.69;85.10;98897.44;5072078;28;20442;-75
2020/12/30 11:16:33;;;;;;;35.03;18.95;;;;;;;3.55;85.87;98898.16;5058279;28;20049;-75
2020/12/30 11:18:59;;;;;;;29.05;17.95;;;;;;;3.62;86.29;98897.75;5057883;28;20060;-78
2020/12/30 11:21:26;;;;;;;32.55;18.08;;;;;;;3.63;86.14;98895.94;5057847;28;20061;-76
2020/12/30 11:23:52;;;;;;;31.92;19.35;;;;;;;3.53;87.82;98904.34;5059193;28;20048;-74
2020/12/30 11:26:18;;;;;;;30.48;18.48;;;;;;;3.44;88.81;98899.56;5077487;28;20078;-77
2020/12/30 11:28:44;;;;;;;31.67;19.77;;;;;;;3.46;89.56;98905.63;5077962;28;20052;-78
2020/12/30 11:31:13;;;;;;;31.35;19.23;;;;;;;3.29;89.67;98885.38;5077654;28;20460;-80